Jacques Jacob — ZDKG7 — position and weather

sailwx.info

Track history (hours):
 
Tides and Currents Weather Stations Pressure Air Temp Water Temp Dewpoint Dewpoint Depression Visibility Wind Speed Wind Dir Waves Ship Positions

Jacques Jacob

Last reported at 2014-Aug-12 18:10 UTC. Time now 2014-Aug-20 12:42 UTC.
Position N 29°21' W 094°47'.

Length 228 m; draft 13.7 m.

Type: Tanker. MMSI: 236612000.

Date/timePositionNaut miles runAvg speedWind from/ knotsBaromVisibWave heightAir tempDewpointWater temp
2014-Aug-12 18:10N 29°21' W 094°47'6 9.7
2014-Aug-12 17:33N 29°26' W 094°50'8 8.4
2014-Aug-12 16:33N 29°33' W 094°55'7 7.2
2014-Aug-12 15:33N 29°40' W 094°58'5 5.2
2014-Aug-12 14:33N 29°44' W 095°02'1 0.7
2014-Aug-12 13:33N 29°44' W 095°03'0 0.0
2014-Aug-12 12:33N 29°44' W 095°03'0 0.0
2014-Aug-12 11:32N 29°44' W 095°03'0 0.0
2014-Aug-12 10:33N 29°44' W 095°03'51295128.6
2014-Aug-12 09:33S 54°09' W 111°51'51295128.6
2014-Aug-12 08:33N 29°44' W 095°03'0 0.0
2014-Aug-12 07:33N 29°44' W 095°03'0 0.0
2014-Aug-12 06:33N 29°44' W 095°03'0 0.0
2014-Aug-12 05:33N 29°44' W 095°03'0 0.0
2014-Aug-12 04:33N 29°44' W 095°03'0 0.0
2014-Aug-12 03:33N 29°44' W 095°03'0 0.0
2014-Aug-12 02:33N 29°44' W 095°03'0 0.0
2014-Aug-12 01:33N 29°44' W 095°03'0 0.0
2014-Aug-12 00:32N 29°44' W 095°03'0 0.0
2014-Aug-11 23:33N 29°44' W 095°03'0 0.0
2014-Aug-11 22:33N 29°44' W 095°03'0 0.0
2014-Aug-11 21:33N 29°44' W 095°03'0 0.0
2014-Aug-11 20:33N 29°44' W 095°03'0 0.0
2014-Aug-11 19:33N 29°44' W 095°03'0 0.0
2014-Aug-11 18:33N 29°44' W 095°03'0 0.0
2014-Aug-11 17:33N 29°44' W 095°03'0 0.0
2014-Aug-11 16:33N 29°44' W 095°03'0 0.0
2014-Aug-11 15:33N 29°44' W 095°03'0 0.0
2014-Aug-11 14:33N 29°44' W 095°03'0 0.0
2014-Aug-11 13:33N 29°44' W 095°03'0 0.0
2014-Aug-11 12:33N 29°44' W 095°03'0 0.0
2014-Aug-11 11:33N 29°44' W 095°03'1 1.3
2014-Aug-11 10:33N 29°44' W 095°02'8 8.0
2014-Aug-11 09:33N 29°37' W 094°57'1010.2
2014-Aug-11 08:33N 29°28' W 094°51'  
2014-Aug-07 12:04N 29°19' W 094°48'  
Track history (hours):
 
Tides and Currents Weather Stations Pressure Air Temp Water Temp Dewpoint Dewpoint Depression Visibility Wind Speed Wind Dir Waves Ship Positions

Jacques Jacob

Last reported at 2014-Aug-12 18:10 UTC. Time now 2014-Aug-20 12:42 UTC.
Position N 29°21' W 094°47'.

Length 228 m; draft 13.7 m.

Type: Tanker. MMSI: 236612000.

Date/timePositionNaut miles runAvg speedWind from/ knotsBaromVisibWave heightAir tempDewpointWater temp
2014-Aug-12 18:10N 29°21' W 094°47'6 9.7
2014-Aug-12 17:33N 29°26' W 094°50'8 8.4
2014-Aug-12 16:33N 29°33' W 094°55'7 7.2
2014-Aug-12 15:33N 29°40' W 094°58'5 5.2
2014-Aug-12 14:33N 29°44' W 095°02'1 0.7
2014-Aug-12 13:33N 29°44' W 095°03'0 0.0
2014-Aug-12 12:33N 29°44' W 095°03'0 0.0
2014-Aug-12 11:32N 29°44' W 095°03'0 0.0
2014-Aug-12 10:33N 29°44' W 095°03'51295128.6
2014-Aug-12 09:33S 54°09' W 111°51'51295128.6
2014-Aug-12 08:33N 29°44' W 095°03'0 0.0
2014-Aug-12 07:33N 29°44' W 095°03'0 0.0
2014-Aug-12 06:33N 29°44' W 095°03'0 0.0
2014-Aug-12 05:33N 29°44' W 095°03'0 0.0
2014-Aug-12 04:33N 29°44' W 095°03'0 0.0
2014-Aug-12 03:33N 29°44' W 095°03'0 0.0
2014-Aug-12 02:33N 29°44' W 095°03'0 0.0
2014-Aug-12 01:33N 29°44' W 095°03'0 0.0
2014-Aug-12 00:32N 29°44' W 095°03'0 0.0
2014-Aug-11 23:33N 29°44' W 095°03'0 0.0
2014-Aug-11 22:33N 29°44' W 095°03'0 0.0
2014-Aug-11 21:33N 29°44' W 095°03'0 0.0
2014-Aug-11 20:33N 29°44' W 095°03'0 0.0
2014-Aug-11 19:33N 29°44' W 095°03'0 0.0
2014-Aug-11 18:33N 29°44' W 095°03'0 0.0
2014-Aug-11 17:33N 29°44' W 095°03'0 0.0
2014-Aug-11 16:33N 29°44' W 095°03'0 0.0
2014-Aug-11 15:33N 29°44' W 095°03'0 0.0
2014-Aug-11 14:33N 29°44' W 095°03'0 0.0
2014-Aug-11 13:33N 29°44' W 095°03'0 0.0
2014-Aug-11 12:33N 29°44' W 095°03'0 0.0
2014-Aug-11 11:33N 29°44' W 095°03'1 1.3
2014-Aug-11 10:33N 29°44' W 095°02'8 8.0
2014-Aug-11 09:33N 29°37' W 094°57'1010.2
2014-Aug-11 08:33N 29°28' W 094°51'  
2014-Aug-07 12:04N 29°19' W 094°48'  

Dump ship's entire track history